Time,TemperatureF,DewpointF,PressureIn,WindDirection,WindDirectionDegrees,WindSpeedMPH,WindSpeedGustMPH,Humidity,HourlyPrecipIn,Conditions,Clouds,dailyrainin,SolarRadiationWatts/m^2,SoftwareType,DateUTC
2013-01-23 00:02:00,21.5,16.3,30.26,West,260,1.0,6.0,80,0.00,,,0.00,0,Wunderground v.1.15,2013-01-23 07:02:00,
2013-01-23 00:08:00,21.4,16.2,30.26,West,260,1.0,6.0,80,0.00,,,0.00,0,Wunderground v.1.15,2013-01-23 07:08:00,
2013-01-23 00:14:00,21.5,16.0,30.26,West,260,1.0,6.0,79,0.00,,,0.00,0,Wunderground v.1.15,2013-01-23 07:14:00,
2013-01-23 00:20:00,21.3,16.4,30.26,West,260,1.0,6.0,81,0.00,,,0.00,0,Wunderground v.1.15,2013-01-23 07:20:00,
2013-01-23 00:26:00,20.9,16.0,30.27,West,260,2.0,6.0,81,0.00,,,0.00,0,Wunderground v.1.15,2013-01-23 07:26:00,
2013-01-23 00:32:00,20.7,16.1,30.27,West,260,3.0,6.0,82,0.00,,,0.00,0,Wunderground v.1.15,2013-01-23 07:32:00,
2013-01-23 00:38:00,20.6,16.0,30.27,West,260,2.0,6.0,82,0.00,,,0.00,0,Wunderground v.1.15,2013-01-23 07:38:00,
2013-01-23 00:44:00,20.3,15.7,30.28,West,260,2.0,6.0,82,0.00,,,0.00,0,Wunderground v.1.15,2013-01-23 07:44:00,
2013-01-23 00:50:00,20.2,15.3,30.28,West,260,1.0,6.0,81,0.00,,,0.00,0,Wunderground v.1.15,2013-01-23 07:50:00,
2013-01-23 00:56:00,20.0,15.4,30.28,West,260,1.0,6.0,82,0.00,,,0.00,0,Wunderground v.1.15,2013-01-23 07:56:00,
2013-01-23 01:02:00,19.8,15.2,30.28,West,260,2.0,6.0,82,0.00,,,0.00,0,Wunderground v.1.15,2013-01-23 08:02:00,
2013-01-23 01:08:00,19.8,15.2,30.28,West,260,1.0,6.0,82,0.00,,,0.00,0,Wunderground v.1.15,2013-01-23 08:08:00,
2013-01-23 01:14:00,19.7,15.1,30.28,West,260,1.0,6.0,82,0.00,,,0.00,0,Wunderground v.1.15,2013-01-23 08:14:00,
2013-01-23 01:20:00,19.5,14.9,30.28,West,260,1.0,6.0,82,0.00,,,0.00,0,Wunderground v.1.15,2013-01-23 08:20:00,
2013-01-23 01:28:00,19.2,14.6,30.28,West,260,1.0,6.0,82,0.00,,,0.00,0,Wunderground v.1.15,2013-01-23 08:28:00,
2013-01-23 01:34:00,19.1,14.8,30.28,West,260,1.0,6.0,83,0.00,,,0.00,0,Wunderground v.1.15,2013-01-23 08:34:00,
2013-01-23 01:40:00,19.1,14.8,30.28,West,260,2.0,2.0,83,0.00,,,0.00,0,Wunderground v.1.15,2013-01-23 08:40:00,
2013-01-23 01:46:00,19.0,14.7,30.28,West,260,1.0,6.0,83,0.00,,,0.00,0,Wunderground v.1.15,2013-01-23 08:46:00,
2013-01-23 01:52:00,19.0,14.7,30.28,West,260,0.0,6.0,83,0.00,,,0.00,0,Wunderground v.1.15,2013-01-23 08:52:00,
2013-01-23 01:58:00,19.0,14.7,30.27,West,260,0.0,6.0,83,0.00,,,0.00,0,Wunderground v.1.15,2013-01-23 08:58:00,
2013-01-23 02:04:00,19.0,14.7,30.27,West,260,0.0,4.0,83,0.00,,,0.00,0,Wunderground v.1.15,2013-01-23 09:04:00,
2013-01-23 02:10:00,19.1,14.8,30.28,West,260,1.0,1.0,83,0.00,,,0.00,0,Wunderground v.1.15,2013-01-23 09:10:00,
2013-01-23 02:16:00,19.3,15.0,30.29,West,260,1.0,4.0,83,0.00,,,0.00,0,Wunderground v.1.15,2013-01-23 09:16:00,
2013-01-23 02:22:00,19.4,15.4,30.28,West,260,1.0,2.0,84,0.00,,,0.00,0,Wunderground v.1.15,2013-01-23 09:22:00,
2013-01-23 02:28:00,19.4,15.4,30.28,West,260,2.0,4.0,84,0.00,,,0.00,0,Wunderground v.1.15,2013-01-23 09:28:00,
2013-01-23 02:34:00,19.4,15.4,30.28,West,260,2.0,4.0,84,0.00,,,0.00,0,Wunderground v.1.15,2013-01-23 09:34:00,
2013-01-23 02:40:00,19.4,15.4,30.28,West,260,1.0,1.0,84,0.00,,,0.00,0,Wunderground v.1.15,2013-01-23 09:40:00,
2013-01-23 02:46:00,19.4,15.4,30.27,West,260,0.0,4.0,84,0.00,,,0.00,0,Wunderground v.1.15,2013-01-23 09:46:00,
2013-01-23 02:52:00,19.4,15.4,30.28,West,260,1.0,4.0,84,0.00,,,0.00,0,Wunderground v.1.15,2013-01-23 09:52:00,
2013-01-23 02:58:00,19.3,15.5,30.28,West,260,3.0,4.0,85,0.00,,,0.00,0,Wunderground v.1.15,2013-01-23 09:58:00,
2013-01-23 03:04:00,18.9,14.9,30.28,West,260,4.0,6.0,84,0.00,,,0.00,0,Wunderground v.1.15,2013-01-23 10:04:00,
2013-01-23 03:16:00,19.1,15.1,30.28,West,260,3.0,5.0,84,0.00,,,0.00,0,Wunderground v.1.15,2013-01-23 10:16:00,
2013-01-23 03:22:00,19.4,15.1,30.27,West,260,0.0,4.0,83,0.00,,,0.00,0,Wunderground v.1.15,2013-01-23 10:22:00,
2013-01-23 03:28:00,19.7,15.1,30.27,West,260,0.0,4.0,82,0.00,,,0.00,0,Wunderground v.1.15,2013-01-23 10:28:00,
2013-01-23 03:34:00,19.9,15.3,30.28,West,260,1.0,4.0,82,0.00,,,0.00,0,Wunderground v.1.15,2013-01-23 10:34:00,
2013-01-23 03:40:00,20.2,15.3,30.28,West,260,1.0,4.0,81,0.00,,,0.00,0,Wunderground v.1.15,2013-01-23 10:40:00,
2013-01-23 03:46:00,20.5,15.3,30.27,West,260,2.0,4.0,80,0.00,,,0.00,0,Wunderground v.1.15,2013-01-23 10:46:00,
2013-01-23 03:52:00,20.8,15.3,30.27,West,260,1.0,4.0,79,0.00,,,0.00,0,Wunderground v.1.15,2013-01-23 10:52:00,
2013-01-23 03:58:00,20.9,15.1,30.27,West,260,1.0,4.0,78,0.00,,,0.00,0,Wunderground v.1.15,2013-01-23 10:58:00,
2013-01-23 04:04:00,21.1,15.0,30.27,West,260,0.0,4.0,77,0.00,,,0.00,0,Wunderground v.1.15,2013-01-23 11:04:00,
2013-01-23 04:10:00,21.2,15.1,30.27,West,260,0.0,4.0,77,0.00,,,0.00,0,Wunderground v.1.15,2013-01-23 11:10:00,
2013-01-23 04:16:00,21.7,15.6,30.28,West,260,0.0,4.0,77,0.00,,,0.00,0,Wunderground v.1.15,2013-01-23 11:16:00,
2013-01-23 04:22:00,21.5,15.7,30.27,West,260,0.0,4.0,78,0.00,,,0.00,0,Wunderground v.1.15,2013-01-23 11:22:00,
2013-01-23 04:28:00,21.2,15.1,30.27,West,260,1.0,4.0,77,0.00,,,0.00,0,Wunderground v.1.15,2013-01-23 11:28:00,
2013-01-23 04:34:00,21.0,14.9,30.27,West,260,1.0,4.0,77,0.00,,,0.00,0,Wunderground v.1.15,2013-01-23 11:34:00,
2013-01-23 04:40:00,21.7,15.3,30.28,West,260,1.0,1.0,76,0.00,,,0.00,0,Wunderground v.1.15,2013-01-23 11:40:00,
2013-01-23 04:46:00,21.9,15.5,30.27,West,260,1.0,4.0,76,0.00,,,0.00,0,Wunderground v.1.15,2013-01-23 11:46:00,
2013-01-23 04:52:00,21.7,15.6,30.27,West,260,1.0,4.0,77,0.00,,,0.00,0,Wunderground v.1.15,2013-01-23 11:52:00,
2013-01-23 04:58:00,21.1,15.9,30.28,West,260,2.0,4.0,80,0.00,,,0.00,0,Wunderground v.1.15,2013-01-23 11:58:00,
2013-01-23 05:06:00,20.2,15.3,30.28,West,260,2.0,4.0,81,0.00,,,0.00,0,Wunderground v.1.15,2013-01-23 12:06:00,
2013-01-23 05:14:00,19.4,15.1,30.27,West,260,2.0,4.0,83,0.00,,,0.00,0,Wunderground v.1.15,2013-01-23 12:14:00,
2013-01-23 05:20:00,19.0,15.0,30.27,West,260,1.0,1.0,84,0.00,,,0.00,0,Wunderground v.1.15,2013-01-23 12:20:00,
2013-01-23 05:26:00,18.9,15.1,30.27,West,260,1.0,4.0,85,0.00,,,0.00,0,Wunderground v.1.15,2013-01-23 12:26:00,
2013-01-23 05:32:00,18.8,15.0,30.28,West,260,0.0,4.0,85,0.00,,,0.00,0,Wunderground v.1.15,2013-01-23 12:32:00,
2013-01-23 05:38:00,18.8,15.3,30.28,West,260,0.0,4.0,86,0.00,,,0.00,0,Wunderground v.1.15,2013-01-23 12:38:00,
2013-01-23 05:44:00,18.8,15.3,30.26,West,260,1.0,4.0,86,0.00,,,0.00,0,Wunderground v.1.15,2013-01-23 12:44:00,
2013-01-23 05:52:00,18.7,15.2,30.26,West,260,3.0,4.0,86,0.00,,,0.00,0,Wunderground v.1.15,2013-01-23 12:52:00,
2013-01-23 05:58:00,18.9,15.1,30.26,West,260,0.0,4.0,85,0.00,,,0.00,0,Wunderground v.1.15,2013-01-23 12:58:00,
2013-01-23 06:04:00,19.1,15.3,30.27,West,260,1.0,5.0,85,0.00,,,0.00,0,Wunderground v.1.15,2013-01-23 13:04:00,
2013-01-23 06:10:00,19.3,16.1,30.27,West,260,3.0,5.0,87,0.00,,,0.00,0,Wunderground v.1.15,2013-01-23 13:10:00,
2013-01-23 06:16:00,19.4,15.9,30.27,West,260,2.0,5.0,86,0.00,,,0.00,0,Wunderground v.1.15,2013-01-23 13:16:00,
2013-01-23 06:22:00,19.4,15.9,30.27,West,260,1.0,5.0,86,0.00,,,0.00,0,Wunderground v.1.15,2013-01-23 13:22:00,
2013-01-23 06:30:00,19.7,15.9,30.26,West,260,1.0,5.0,85,0.00,,,0.00,0,Wunderground v.1.15,2013-01-23 13:30:00,
2013-01-23 06:36:00,19.9,15.8,30.26,West,260,1.0,5.0,84,0.00,,,0.00,0,Wunderground v.1.15,2013-01-23 13:36:00,
2013-01-23 06:42:00,20.0,15.9,30.26,West,260,0.0,5.0,84,0.00,,,0.00,0,Wunderground v.1.15,2013-01-23 13:42:00,
2013-01-23 06:48:00,20.0,16.2,30.26,West,260,0.0,5.0,85,0.00,,,0.00,0,Wunderground v.1.15,2013-01-23 13:48:00,
2013-01-23 06:54:00,19.9,16.4,30.25,West,260,1.0,5.0,86,0.00,,,0.00,0,Wunderground v.1.15,2013-01-23 13:54:00,
2013-01-23 07:00:00,19.8,16.3,30.25,West,260,2.0,5.0,86,0.00,,,0.00,0,Wunderground v.1.15,2013-01-23 14:00:00,
2013-01-23 07:06:00,19.8,16.0,30.25,West,260,1.0,5.0,85,0.00,,,0.00,0,Wunderground v.1.15,2013-01-23 14:06:00,
2013-01-23 07:12:00,19.9,16.1,30.25,West,260,1.0,5.0,85,0.00,,,0.00,0,Wunderground v.1.15,2013-01-23 14:12:00,
2013-01-23 07:18:00,19.9,16.1,30.25,West,260,1.0,5.0,85,0.00,,,0.00,0,Wunderground v.1.15,2013-01-23 14:18:00,
2013-01-23 07:24:00,19.8,16.3,30.25,West,260,1.0,5.0,86,0.00,,,0.00,0,Wunderground v.1.15,2013-01-23 14:24:00,
2013-01-23 07:30:00,19.8,16.3,30.25,West,260,0.0,5.0,86,0.00,,,0.00,0,Wunderground v.1.15,2013-01-23 14:30:00,
2013-01-23 07:46:00,19.9,16.1,30.25,West,260,1.0,5.0,85,0.00,,,0.00,0,Wunderground v.1.15,2013-01-23 14:46:00,
2013-01-23 07:52:00,19.9,16.1,30.24,West,260,1.0,5.0,85,0.00,,,0.00,0,Wunderground v.1.15,2013-01-23 14:52:00,
2013-01-23 07:58:00,19.9,16.4,30.24,West,260,1.0,5.0,86,0.00,,,0.00,0,Wunderground v.1.15,2013-01-23 14:58:00,
2013-01-23 08:04:00,19.7,16.2,30.24,West,260,2.0,5.0,86,0.00,,,0.00,0,Wunderground v.1.15,2013-01-23 15:04:00,
2013-01-23 08:10:00,19.7,16.2,30.24,West,260,3.0,5.0,86,0.00,,,0.00,0,Wunderground v.1.15,2013-01-23 15:10:00,
2013-01-23 08:16:00,19.7,16.2,30.24,West,260,3.0,6.0,86,0.00,,,0.00,5,Wunderground v.1.15,2013-01-23 15:16:00,
2013-01-23 08:22:00,19.7,16.5,30.25,West,260,2.0,5.0,87,0.00,,,0.00,11,Wunderground v.1.15,2013-01-23 15:22:00,
2013-01-23 08:28:00,19.9,16.4,30.24,West,260,1.0,5.0,86,0.00,,,0.00,14,Wunderground v.1.15,2013-01-23 15:28:00,
2013-01-23 08:34:00,20.0,16.8,30.24,West,260,2.0,5.0,87,0.00,,,0.00,18,Wunderground v.1.15,2013-01-23 15:34:00,
2013-01-23 08:40:00,20.1,16.6,30.24,West,260,2.0,5.0,86,0.00,,,0.00,21,Wunderground v.1.15,2013-01-23 15:40:00,
2013-01-23 08:46:00,20.3,16.8,30.24,West,260,2.0,5.0,86,0.00,,,0.00,26,Wunderground v.1.15,2013-01-23 15:46:00,
2013-01-23 08:52:00,20.2,16.4,30.24,West,260,4.0,6.0,85,0.00,,,0.00,35,Wunderground v.1.15,2013-01-23 15:52:00,
2013-01-23 08:58:00,20.0,16.2,30.24,West,260,4.0,6.0,85,0.00,,,0.00,42,Wunderground v.1.15,2013-01-23 15:58:00,
2013-01-23 09:04:00,20.2,16.4,30.24,West,260,3.0,5.0,85,0.00,,,0.00,44,Wunderground v.1.15,2013-01-23 16:04:00,
2013-01-23 09:12:00,20.3,16.5,30.24,West,260,3.0,5.0,85,0.00,,,0.00,47,Wunderground v.1.15,2013-01-23 16:12:00,
2013-01-23 09:18:00,20.9,16.8,30.24,West,260,1.0,5.0,84,0.00,,,0.00,54,Wunderground v.1.15,2013-01-23 16:18:00,
2013-01-23 09:24:00,21.1,16.7,30.24,West,260,1.0,5.0,83,0.00,,,0.00,60,Wunderground v.1.15,2013-01-23 16:24:00,
2013-01-23 09:30:00,21.3,16.9,30.24,West,260,1.0,1.0,83,0.00,,,0.00,65,Wunderground v.1.15,2013-01-23 16:30:00,
2013-01-23 09:36:00,21.3,16.9,30.24,West,260,1.0,5.0,83,0.00,,,0.00,72,Wunderground v.1.15,2013-01-23 16:36:00,
2013-01-23 09:54:00,21.9,17.2,30.24,West,260,2.0,5.0,82,0.00,,,0.00,105,Wunderground v.1.15,2013-01-23 16:54:00,
2013-01-23 10:06:00,22.3,17.6,30.24,West,260,2.0,5.0,82,0.00,,,0.00,146,Wunderground v.1.15,2013-01-23 17:06:00,
2013-01-23 10:12:00,22.5,17.8,30.24,West,260,1.0,5.0,82,0.00,,,0.00,160,Wunderground v.1.15,2013-01-23 17:12:00,
2013-01-23 10:18:00,22.8,18.4,30.23,West,260,1.0,5.0,83,0.00,,,0.00,148,Wunderground v.1.15,2013-01-23 17:18:00,
2013-01-23 10:24:00,23.1,18.4,30.23,West,260,0.0,5.0,82,0.00,,,0.00,132,Wunderground v.1.15,2013-01-23 17:24:00,
2013-01-23 10:30:00,23.4,18.7,30.23,West,260,0.0,5.0,82,0.00,,,0.00,132,Wunderground v.1.15,2013-01-23 17:30:00,
2013-01-23 10:36:00,23.7,18.7,30.23,West,260,0.0,5.0,81,0.00,,,0.00,98,Wunderground v.1.15,2013-01-23 17:36:00,
2013-01-23 10:42:00,23.9,18.6,30.23,West,260,1.0,5.0,80,0.00,,,0.00,107,Wunderground v.1.15,2013-01-23 17:42:00,
2013-01-23 10:48:00,24.1,19.1,30.24,West,260,1.0,5.0,81,0.00,,,0.00,135,Wunderground v.1.15,2013-01-23 17:48:00,
2013-01-23 10:54:00,24.3,19.3,30.23,West,260,1.0,5.0,81,0.00,,,0.00,163,Wunderground v.1.15,2013-01-23 17:54:00,
2013-01-23 11:00:00,24.8,19.8,30.23,West,260,0.0,3.0,81,0.00,,,0.00,155,Wunderground v.1.15,2013-01-23 18:00:00,
2013-01-23 11:06:00,25.3,20.0,30.23,West,260,1.0,3.0,80,0.00,,,0.00,171,Wunderground v.1.15,2013-01-23 18:06:00,
2013-01-23 11:12:00,25.6,20.3,30.23,West,260,2.0,3.0,80,0.00,,,0.00,178,Wunderground v.1.15,2013-01-23 18:12:00,
2013-01-23 11:18:00,25.9,20.6,30.23,West,260,2.0,3.0,80,0.00,,,0.00,158,Wunderground v.1.15,2013-01-23 18:18:00,
2013-01-23 11:24:00,26.2,21.2,30.22,West,260,2.0,3.0,81,0.00,,,0.00,148,Wunderground v.1.15,2013-01-23 18:24:00,
2013-01-23 11:30:00,26.4,21.1,30.22,West,260,3.0,3.0,80,0.00,,,0.00,139,Wunderground v.1.15,2013-01-23 18:30:00,
2013-01-23 11:36:00,26.8,21.8,30.21,West,260,2.0,3.0,81,0.00,,,0.00,137,Wunderground v.1.15,2013-01-23 18:36:00,
2013-01-23 11:42:00,27.1,21.5,30.20,West,260,2.0,3.0,79,0.00,,,0.00,135,Wunderground v.1.15,2013-01-23 18:42:00,
2013-01-23 11:48:00,27.6,21.3,30.20,West,260,2.0,3.0,77,0.00,,,0.00,158,Wunderground v.1.15,2013-01-23 18:48:00,
2013-01-23 11:54:00,28.0,21.4,30.20,West,260,1.0,3.0,76,0.00,,,0.00,178,Wunderground v.1.15,2013-01-23 18:54:00,
2013-01-23 12:00:00,28.5,21.9,30.20,West,260,1.0,3.0,76,0.00,,,0.00,176,Wunderground v.1.15,2013-01-23 19:00:00,
2013-01-23 12:06:00,28.9,22.3,30.19,West,260,1.0,3.0,76,0.00,,,0.00,190,Wunderground v.1.15,2013-01-23 19:06:00,
2013-01-23 12:12:00,29.0,22.4,30.20,West,260,1.0,3.0,76,0.00,,,0.00,193,Wunderground v.1.15,2013-01-23 19:12:00,
2013-01-23 12:18:00,29.8,22.8,30.18,West,260,1.0,3.0,75,0.00,,,0.00,195,Wunderground v.1.15,2013-01-23 19:18:00,
2013-01-23 12:24:00,30.5,22.9,30.18,West,260,0.0,3.0,73,0.00,,,0.00,165,Wunderground v.1.15,2013-01-23 19:24:00,
2013-01-23 12:34:00,31.3,23.3,30.17,West,260,2.0,3.0,72,0.00,,,0.00,169,Wunderground v.1.15,2013-01-23 19:34:00,
2013-01-23 12:40:00,31.2,23.2,30.17,West,260,3.0,3.0,72,0.00,,,0.00,199,Wunderground v.1.15,2013-01-23 19:40:00,
2013-01-23 12:46:00,31.4,23.4,30.17,West,260,2.0,3.0,72,0.00,,,0.00,218,Wunderground v.1.15,2013-01-23 19:46:00,
2013-01-23 12:52:00,31.7,24.0,30.17,West,260,2.0,4.0,73,0.00,,,0.00,221,Wunderground v.1.15,2013-01-23 19:52:00,
2013-01-23 13:00:00,32.1,24.4,30.16,West,260,3.0,3.0,73,0.00,,,0.00,188,Wunderground v.1.15,2013-01-23 20:00:00,
2013-01-23 13:08:00,32.3,24.3,30.16,West,260,3.0,3.0,72,0.00,,,0.00,172,Wunderground v.1.15,2013-01-23 20:08:00,
2013-01-23 13:16:00,32.5,24.1,30.16,West,260,3.0,3.0,71,0.00,,,0.00,199,Wunderground v.1.15,2013-01-23 20:16:00,
2013-01-23 13:22:00,32.8,24.4,30.15,West,260,3.0,4.0,71,0.00,,,0.00,171,Wunderground v.1.15,2013-01-23 20:22:00,
2013-01-23 13:28:00,32.8,24.1,30.15,West,260,3.0,6.0,70,0.00,,,0.00,149,Wunderground v.1.15,2013-01-23 20:28:00,
2013-01-23 13:34:00,32.6,23.6,30.14,West,260,5.0,7.0,69,0.00,,,0.00,139,Wunderground v.1.15,2013-01-23 20:34:00,
2013-01-23 13:42:00,33.1,21.9,30.14,West,260,4.0,4.0,63,0.00,,,0.00,158,Wunderground v.1.15,2013-01-23 20:42:00,
2013-01-23 13:48:00,33.3,22.1,30.13,West,260,3.0,6.0,63,0.00,,,0.00,243,Wunderground v.1.15,2013-01-23 20:48:00,
2013-01-23 13:54:00,34.3,23.0,30.13,West,260,2.0,3.0,63,0.00,,,0.00,227,Wunderground v.1.15,2013-01-23 20:54:00,
2013-01-23 14:00:00,42.8,20.1,30.13,SSE,166,6.0,12.0,40,0.00,,,0.00,253,Wunderground v.1.15,2013-01-23 21:00:00,
2013-01-23 14:08:00,46.8,18.5,30.12,SE,142,13.0,13.0,32,0.00,,,0.00,243,Wunderground v.1.15,2013-01-23 21:08:00,
2013-01-23 14:14:00,47.3,17.4,30.12,SE,138,15.0,18.0,30,0.00,,,0.00,246,Wunderground v.1.15,2013-01-23 21:14:00,
2013-01-23 14:20:00,47.8,17.0,30.12,SE,142,15.0,15.0,29,0.00,,,0.00,214,Wunderground v.1.15,2013-01-23 21:20:00,
2013-01-23 14:26:00,47.8,18.6,30.11,SSE,148,16.0,21.0,31,0.00,,,0.00,199,Wunderground v.1.15,2013-01-23 21:26:00,
2013-01-23 14:32:00,47.8,15.4,30.11,SSE,152,17.0,17.0,27,0.00,,,0.00,225,Wunderground v.1.15,2013-01-23 21:32:00,
2013-01-23 14:38:00,48.2,18.2,30.12,SSE,156,16.0,22.0,30,0.00,,,0.00,178,Wunderground v.1.15,2013-01-23 21:38:00,
2013-01-23 14:44:00,48.3,16.7,30.11,South,172,16.0,16.0,28,0.00,,,0.00,190,Wunderground v.1.15,2013-01-23 21:44:00,
2013-01-23 14:50:00,47.5,16.0,30.11,South,174,15.0,16.0,28,0.00,,,0.00,163,Wunderground v.1.15,2013-01-23 21:50:00,
2013-01-23 14:56:00,47.8,16.2,30.12,South,172,14.0,16.0,28,0.00,,,0.00,144,Wunderground v.1.15,2013-01-23 21:56:00,
2013-01-23 15:02:00,48.0,17.2,30.11,South,174,13.0,24.0,29,0.00,,,0.00,130,Wunderground v.1.15,2013-01-23 22:02:00,
2013-01-23 15:08:00,48.5,16.0,30.11,SSE,153,13.0,24.0,27,0.00,,,0.00,121,Wunderground v.1.15,2013-01-23 22:08:00,
2013-01-23 15:14:00,49.0,16.4,30.10,SSE,152,14.0,24.0,27,0.00,,,0.00,88,Wunderground v.1.15,2013-01-23 22:14:00,
2013-01-23 15:20:00,48.3,16.7,30.10,SSE,162,15.0,15.0,28,0.00,,,0.00,77,Wunderground v.1.15,2013-01-23 22:20:00,
2013-01-23 15:26:00,47.9,17.1,30.10,South,172,15.0,24.0,29,0.00,,,0.00,53,Wunderground v.1.15,2013-01-23 22:26:00,
2013-01-23 15:32:00,47.8,18.6,30.10,SSE,163,19.0,24.0,31,0.00,,,0.00,46,Wunderground v.1.15,2013-01-23 22:32:00,
2013-01-23 15:38:00,48.0,16.4,30.09,SSE,164,22.0,24.0,28,0.00,,,0.00,39,Wunderground v.1.15,2013-01-23 22:38:00,
2013-01-23 15:44:00,48.9,15.5,30.08,South,170,26.0,34.0,26,0.00,,,0.00,28,Wunderground v.1.15,2013-01-23 22:44:00,
2013-01-23 15:50:00,49.0,14.7,30.09,SSE,165,31.0,31.0,25,0.00,,,0.00,28,Wunderground v.1.15,2013-01-23 22:50:00,
2013-01-23 15:56:00,48.7,15.3,30.08,South,174,29.0,32.0,26,0.00,,,0.00,19,Wunderground v.1.15,2013-01-23 22:56:00,
2013-01-23 16:02:00,48.7,16.2,30.09,South,173,30.0,33.0,27,0.00,,,0.00,19,Wunderground v.1.15,2013-01-23 23:02:00,
2013-01-23 16:08:00,49.1,16.5,30.10,South,179,30.0,33.0,27,0.00,,,0.00,25,Wunderground v.1.15,2013-01-23 23:08:00,
2013-01-23 16:14:00,49.4,15.0,30.09,SSE,156,27.0,27.0,25,0.00,,,0.00,25,Wunderground v.1.15,2013-01-23 23:14:00,
2013-01-23 16:20:00,49.1,15.6,30.10,SSE,147,25.0,25.0,26,0.00,,,0.00,25,Wunderground v.1.15,2013-01-23 23:20:00,
2013-01-23 16:26:00,48.9,15.5,30.09,SSE,160,26.0,30.0,26,0.00,,,0.00,30,Wunderground v.1.15,2013-01-23 23:26:00,
2013-01-23 16:32:00,49.1,16.5,30.08,SSE,151,27.0,32.0,27,0.00,,,0.00,28,Wunderground v.1.15,2013-01-23 23:32:00,
2013-01-23 16:38:00,48.8,15.4,30.08,SSE,163,26.0,32.0,26,0.00,,,0.00,37,Wunderground v.1.15,2013-01-23 23:38:00,
2013-01-23 16:44:00,49.1,14.7,30.08,SSE,159,26.0,30.0,25,0.00,,,0.00,28,Wunderground v.1.15,2013-01-23 23:44:00,
2013-01-23 16:50:00,48.8,13.5,30.08,SSE,163,26.0,28.0,24,0.00,,,0.00,25,Wunderground v.1.15,2013-01-23 23:50:00,
2013-01-23 16:56:00,49.2,14.8,30.07,SSE,164,27.0,31.0,25,0.00,,,0.00,21,Wunderground v.1.15,2013-01-23 23:56:00,
2013-01-23 17:02:00,49.4,14.1,30.08,SSE,159,29.0,30.0,24,0.00,,,0.00,18,Wunderground v.1.15,2013-01-24 00:02:00,
2013-01-23 17:08:00,48.6,16.1,30.08,SSE,160,28.0,32.0,27,0.00,,,0.00,7,Wunderground v.1.15,2013-01-24 00:08:00,
2013-01-23 17:14:00,49.4,11.0,30.07,SSE,168,27.0,29.0,21,0.00,,,0.00,0,Wunderground v.1.15,2013-01-24 00:14:00,
2013-01-23 17:20:00,49.3,13.0,30.08,SSE,166,27.0,29.0,23,0.00,,,0.00,0,Wunderground v.1.15,2013-01-24 00:20:00,
2013-01-23 17:26:00,48.5,15.1,30.09,SSE,160,26.0,29.0,26,0.00,,,0.00,0,Wunderground v.1.15,2013-01-24 00:26:00,
2013-01-23 17:32:00,48.2,14.9,30.08,South,172,25.0,26.0,26,0.00,,,0.00,0,Wunderground v.1.15,2013-01-24 00:32:00,
2013-01-23 17:38:00,48.4,15.0,30.09,SE,144,23.0,26.0,26,0.00,,,0.00,0,Wunderground v.1.15,2013-01-24 00:38:00,
2013-01-23 17:44:00,47.7,16.9,30.09,SE,136,19.0,24.0,29,0.00,,,0.00,0,Wunderground v.1.15,2013-01-24 00:44:00,
2013-01-23 17:50:00,46.5,16.7,30.09,SE,126,17.0,24.0,30,0.00,,,0.00,0,Wunderground v.1.15,2013-01-24 00:50:00,
2013-01-23 18:00:00,45.5,17.3,30.10,SE,139,20.0,20.0,32,0.00,,,0.00,0,Wunderground v.1.15,2013-01-24 01:00:00,
2013-01-23 18:08:00,45.4,17.2,30.09,SE,140,18.0,24.0,32,0.00,,,0.00,0,Wunderground v.1.15,2013-01-24 01:08:00,
2013-01-23 18:14:00,46.5,15.9,30.09,SSE,163,21.0,32.0,29,0.00,,,0.00,0,Wunderground v.1.15,2013-01-24 01:14:00,
2013-01-23 18:20:00,47.6,19.2,30.09,SSE,161,29.0,38.0,32,0.00,,,0.00,0,Wunderground v.1.15,2013-01-24 01:20:00,
2013-01-23 18:26:00,46.6,22.9,30.08,West,280,33.0,38.0,39,0.00,,,0.00,0,Wunderground v.1.15,2013-01-24 01:26:00,
2013-01-23 18:34:00,46.0,24.7,30.09,South,177,30.0,30.0,43,0.00,,,0.00,0,Wunderground v.1.15,2013-01-24 01:34:00,
2013-01-23 18:42:00,45.9,26.3,30.07,South,171,27.0,28.0,46,0.00,,,0.00,0,Wunderground v.1.15,2013-01-24 01:42:00,
2013-01-23 18:48:00,45.7,25.0,30.09,SSE,162,25.0,28.0,44,0.00,,,0.00,0,Wunderground v.1.15,2013-01-24 01:48:00,
2013-01-23 18:54:00,46.4,24.5,30.08,South,169,24.0,24.0,42,0.00,,,0.00,0,Wunderground v.1.15,2013-01-24 01:54:00,
2013-01-23 19:00:00,47.0,23.9,30.08,South,172,25.0,25.0,40,0.00,,,0.00,0,Wunderground v.1.15,2013-01-24 02:00:00,
2013-01-23 19:06:00,46.2,24.9,30.08,South,189,20.0,25.0,43,0.00,,,0.00,0,Wunderground v.1.15,2013-01-24 02:06:00,
2013-01-23 19:12:00,46.0,25.3,30.08,South,176,18.0,24.0,44,0.00,,,0.00,0,Wunderground v.1.15,2013-01-24 02:12:00,
2013-01-23 19:18:00,45.7,25.5,30.08,South,183,20.0,24.0,45,0.00,,,0.00,0,Wunderground v.1.15,2013-01-24 02:18:00,
2013-01-23 19:26:00,45.4,23.0,30.08,South,185,12.0,24.0,41,0.00,,,0.00,0,Wunderground v.1.15,2013-01-24 02:26:00,
2013-01-23 19:32:00,46.7,21.8,30.08,SSW,193,10.0,24.0,37,0.00,,,0.00,0,Wunderground v.1.15,2013-01-24 02:32:00,
2013-01-23 19:38:00,46.8,21.2,30.07,South,186,10.0,24.0,36,0.00,,,0.00,0,Wunderground v.1.15,2013-01-24 02:38:00,
2013-01-23 19:44:00,47.1,18.0,30.07,SSE,166,11.0,24.0,31,0.00,,,0.00,0,Wunderground v.1.15,2013-01-24 02:44:00,
2013-01-23 19:50:00,47.2,20.2,30.06,South,186,11.0,11.0,34,0.00,,,0.00,0,Wunderground v.1.15,2013-01-24 02:50:00,
2013-01-23 19:56:00,46.2,20.0,30.06,SSW,197,11.0,24.0,35,0.00,,,0.00,0,Wunderground v.1.15,2013-01-24 02:56:00,
2013-01-23 20:02:00,45.9,17.7,30.06,SSW,204,12.0,17.0,32,0.00,,,0.00,0,Wunderground v.1.15,2013-01-24 03:02:00,
2013-01-23 20:08:00,45.1,19.7,30.05,SSW,197,14.0,17.0,36,0.00,,,0.00,0,Wunderground v.1.15,2013-01-24 03:08:00,
2013-01-23 20:14:00,45.4,19.3,30.04,SSW,192,16.0,18.0,35,0.00,,,0.00,0,Wunderground v.1.15,2013-01-24 03:14:00,
2013-01-23 20:20:00,45.6,18.1,30.04,SSW,199,15.0,17.0,33,0.00,,,0.00,0,Wunderground v.1.15,2013-01-24 03:20:00,
2013-01-23 20:26:00,46.1,18.6,30.04,SW,221,15.0,17.0,33,0.00,,,0.00,0,Wunderground v.1.15,2013-01-24 03:26:00,
2013-01-23 20:32:00,46.5,18.2,30.04,SW,224,15.0,17.0,32,0.00,,,0.00,0,Wunderground v.1.15,2013-01-24 03:32:00,
2013-01-23 20:38:00,46.3,17.3,30.03,SW,224,15.0,17.0,31,0.00,,,0.00,0,Wunderground v.1.15,2013-01-24 03:38:00,
2013-01-23 20:44:00,45.0,19.6,30.03,SSW,208,13.0,17.0,36,0.00,,,0.00,0,Wunderground v.1.15,2013-01-24 03:44:00,
2013-01-23 20:50:00,43.9,22.3,30.03,SSW,194,12.0,17.0,42,0.00,,,0.00,0,Wunderground v.1.15,2013-01-24 03:50:00,
2013-01-23 20:56:00,44.8,21.9,30.03,SSW,195,9.0,17.0,40,0.00,,,0.00,0,Wunderground v.1.15,2013-01-24 03:56:00,
2013-01-23 21:02:00,45.3,22.4,30.03,South,182,8.0,17.0,40,0.00,,,0.00,0,Wunderground v.1.15,2013-01-24 04:02:00,
2013-01-23 21:08:00,46.4,19.5,30.02,SSE,157,15.0,21.0,34,0.00,,,0.00,0,Wunderground v.1.15,2013-01-24 04:08:00,
2013-01-23 21:14:00,46.8,19.9,30.02,SE,133,22.0,30.0,34,0.00,,,0.00,0,Wunderground v.1.15,2013-01-24 04:14:00,
2013-01-23 21:20:00,47.6,19.2,30.02,SE,145,27.0,27.0,32,0.00,,,0.00,0,Wunderground v.1.15,2013-01-24 04:20:00,
2013-01-23 21:26:00,46.7,19.8,30.02,SSE,164,29.0,32.0,34,0.00,,,0.00,0,Wunderground v.1.15,2013-01-24 04:26:00,
2013-01-23 21:32:00,46.6,19.7,30.02,SSE,165,29.0,32.0,34,0.00,,,0.00,0,Wunderground v.1.15,2013-01-24 04:32:00,
2013-01-23 21:40:00,46.1,19.2,30.02,SSE,152,28.0,29.0,34,0.00,,,0.00,0,Wunderground v.1.15,2013-01-24 04:40:00,
2013-01-23 21:46:00,46.0,19.8,30.02,SSE,150,28.0,29.0,35,0.00,,,0.00,0,Wunderground v.1.15,2013-01-24 04:46:00,
2013-01-23 21:52:00,45.9,19.8,30.02,SSE,165,26.0,27.0,35,0.00,,,0.00,0,Wunderground v.1.15,2013-01-24 04:52:00,
2013-01-23 21:58:00,45.6,19.5,30.03,SE,145,24.0,27.0,35,0.00,,,0.00,0,Wunderground v.1.15,2013-01-24 04:58:00,
2013-01-23 22:00:00,45.7,18.2,30.02,SSE,152,24.0,24.0,33,0.00,,,0.00,0,Wunderground v.1.15,2013-01-24 05:00:00,
2013-01-23 22:06:00,46.1,17.8,30.03,SE,141,23.0,26.0,32,0.00,,,0.00,0,Wunderground v.1.15,2013-01-24 05:06:00,
2013-01-23 22:10:00,46.4,18.1,30.03,SE,139,24.0,24.0,32,0.00,,,0.00,0,Wunderground v.1.15,2013-01-24 05:10:00,
2013-01-23 22:12:00,46.3,17.3,30.03,SE,138,24.0,24.0,31,0.00,,,0.00,0,Wunderground v.1.15,2013-01-24 05:12:00,
2013-01-23 22:18:00,46.6,19.7,30.03,SE,145,22.0,24.0,34,0.00,,,0.00,0,Wunderground v.1.15,2013-01-24 05:18:00,
2013-01-23 22:24:00,46.4,18.8,30.03,SSE,152,22.0,23.0,33,0.00,,,0.00,0,Wunderground v.1.15,2013-01-24 05:24:00,
2013-01-23 22:30:00,46.6,18.3,30.02,SE,139,24.0,24.0,32,0.00,,,0.00,0,Wunderground v.1.15,2013-01-24 05:30:00,
2013-01-23 22:36:00,46.1,17.8,30.01,SE,141,22.0,24.0,32,0.00,,,0.00,0,Wunderground v.1.15,2013-01-24 05:36:00,
2013-01-23 22:42:00,46.4,18.1,30.02,SSE,164,22.0,22.0,32,0.00,,,0.00,0,Wunderground v.1.15,2013-01-24 05:42:00,
2013-01-23 22:48:00,46.0,17.7,30.01,SSE,164,20.0,22.0,32,0.00,,,0.00,0,Wunderground v.1.15,2013-01-24 05:48:00,
2013-01-23 22:54:00,44.5,19.8,30.01,South,170,16.0,18.0,37,0.00,,,0.00,0,Wunderground v.1.15,2013-01-24 05:54:00,
2013-01-23 23:00:00,44.1,18.8,30.01,SSE,160,16.0,17.0,36,0.00,,,0.00,0,Wunderground v.1.15,2013-01-24 06:00:00,
2013-01-23 23:06:00,44.4,19.1,30.01,SSE,168,17.0,17.0,36,0.00,,,0.00,0,Wunderground v.1.15,2013-01-24 06:06:00,
2013-01-23 23:12:00,44.6,19.3,30.00,South,183,17.0,20.0,36,0.00,,,0.00,0,Wunderground v.1.15,2013-01-24 06:12:00,
2013-01-23 23:18:00,44.7,19.3,30.01,South,183,19.0,22.0,36,0.00,,,0.00,0,Wunderground v.1.15,2013-01-24 06:18:00,
2013-01-23 23:24:00,45.5,20.1,30.00,South,176,20.0,21.0,36,0.00,,,0.00,0,Wunderground v.1.15,2013-01-24 06:24:00,
2013-01-23 23:30:00,45.6,19.5,30.00,South,173,23.0,29.0,35,0.00,,,0.00,0,Wunderground v.1.15,2013-01-24 06:30:00,
2013-01-23 23:36:00,45.5,19.4,30.01,South,175,26.0,29.0,35,0.00,,,0.00,0,Wunderground v.1.15,2013-01-24 06:36:00,
2013-01-23 23:42:00,45.2,19.1,30.01,South,169,24.0,25.0,35,0.00,,,0.00,0,Wunderground v.1.15,2013-01-24 06:42:00,
2013-01-23 23:48:00,44.6,19.9,30.01,South,171,22.0,25.0,37,0.00,,,0.00,0,Wunderground v.1.15,2013-01-24 06:48:00,
2013-01-23 23:54:00,44.2,20.2,30.01,SSE,167,20.0,22.0,38,0.00,,,0.00,0,Wunderground v.1.15,2013-01-24 06:54:00,